Main page
METAR-TAF:

METAR-TAF

Airports :

Islamabad, Pakistan

Benazir Bhutto International Airport

latitude: 33-37N, longitude: 073-06E, elevation: 507 m

Current weather observation

The report was made 1 hour and 12 minutes ago, at 16:00 UTC
Wind 6 kt from the Northwest
Temperature 31°C
Humidity 55%
Pressure 1002 hPa
Visibility: 6000 m

METAR: OPRN 161600Z 31006KT 6000 31/21 Q1002.4/29.60

Time: 22:12 (17:12 UTC)

Forecast

The report was made 7 hours and 42 minutes ago, at 09:30 UTC
Forecast valid from 16 at 12 UTC to 17 at 18 UTC
Wind 10 kt from the Southeast
Visibility: 6000 m
Few clouds at a height of 4000 ft
Temporary
from 16 at 22 UTC to 17 at 02 UTC
Wind 6 kt from the Northeast
Visibility: 4000 m
haze

TAF: OPRN 160930Z 1612/1718 13010KT 6000 FEW040 TEMPO 1622/1702 05006KT 4000 HZ

Weather observations and forecasts of more than 4000 airports (METAR and TAF reports).

The available stations are represented by yellow and red dots on the map.

Hover mouse over dot to see the name of the station.

Then click to see weather observations and forecasts.

To change the map : click on the green buttons with a black cross to zoom in, on the green button with a dash to zoom out, or on the green arrows for adjacent maps.


METAR-TAF: